Time;durP1;ratioP1;P1;durP2;ratioP2;P2;SDS_P1;SDS_P2;PMS_P1;PMS_P2;Temp;Humidity;BMP_temperature;BMP_pressure;BME280_temperature;BME280_humidity;BME280_pressure;Samples;Min_cycle;Max_cycle;Signal;HPM_P1;HPM_P2
2024/03/12 00:02:21;;;;;;;30.87;13.40;;;;;;;6.16;78.44;100846.61;123713;1099;104297;-80
2024/03/12 00:04:52;;;;;;;30.43;13.70;;;;;;;6.18;78.37;100828.47;123683;1099;104703;-79
2024/03/12 00:07:23;;;;;;;28.27;13.00;;;;;;;6.16;78.67;100833.59;123758;1099;104313;-79
2024/03/12 00:09:58;;;;;;;26.43;12.17;;;;;;;6.17;78.68;100837.08;123821;1099;104403;-79
2024/03/12 00:12:29;;;;;;;27.23;12.90;;;;;;;6.17;78.11;100834.48;123697;1099;104386;-79
2024/03/12 00:15:06;;;;;;;29.77;12.63;;;;;;;6.17;78.07;100822.36;123729;1099;104300;-80
2024/03/12 00:17:37;;;;;;;30.43;12.70;;;;;;;6.18;78.00;100825.86;123674;1099;104242;-78
2024/03/12 00:20:17;;;;;;;26.80;12.73;;;;;;;6.21;78.18;100820.83;123777;1101;104258;-78
2024/03/12 00:22:49;;;;;;;32.67;13.13;;;;;;;6.22;78.14;100814.81;123767;1099;104476;-79
2024/03/12 00:25:21;;;;;;;28.80;12.93;;;;;;;6.23;78.32;100814.91;123694;1099;104364;-80
2024/03/12 00:27:54;;;;;;;28.63;13.43;;;;;;;6.22;78.43;100807.89;123839;1099;104281;-80
2024/03/12 00:30:27;;;;;;;29.73;13.37;;;;;;;6.22;78.23;100805.28;123893;1099;104198;-79
2024/03/12 00:33:00;;;;;;;27.53;13.13;;;;;;;6.22;78.22;100807.89;124229;1099;104332;-79
2024/03/12 00:35:34;;;;;;;27.10;12.50;;;;;;;6.21;79.12;100806.08;124148;1099;104278;-78
2024/03/12 00:38:05;;;;;;;26.83;12.07;;;;;;;6.20;78.83;100795.56;123969;1099;104229;-78
2024/03/12 00:40:37;;;;;;;27.30;13.95;;;;;;;6.21;78.40;100795.66;123921;1099;104390;-79
2024/03/12 00:43:08;;;;;;;28.05;13.40;;;;;;;6.23;78.74;100790.53;124025;1099;104172;-78
2024/03/12 00:45:41;;;;;;;31.30;13.80;;;;;;;6.22;78.34;100780.94;124092;1100;104774;-80
2024/03/12 00:48:15;;;;;;;29.83;13.33;;;;;;;6.22;78.57;100765.30;124257;1099;102076;-79
2024/03/12 00:50:48;;;;;;;24.90;12.27;;;;;;;6.22;78.60;100760.09;124101;1099;104363;-79
2024/03/12 00:53:19;;;;;;;28.43;13.27;;;;;;;6.21;78.64;100764.38;123764;1099;104364;-78
2024/03/12 00:55:51;;;;;;;28.47;13.63;;;;;;;6.22;78.72;100765.30;124145;1099;104281;-79
2024/03/12 00:58:23;;;;;;;27.80;12.77;;;;;;;6.25;78.45;100768.09;123673;1099;104251;-78
2024/03/12 01:00:57;;;;;;;25.83;12.93;;;;;;;6.24;78.84;100769.77;124065;1099;104325;-79
2024/03/12 01:03:29;;;;;;;29.97;13.73;;;;;;;6.25;79.18;100781.12;124009;1098;104332;-78
2024/03/12 01:06:00;;;;;;;27.97;12.63;;;;;;;6.24;79.06;100779.31;123798;1099;104695;-78
2024/03/12 01:08:31;;;;;;;25.83;12.80;;;;;;;6.23;78.79;100782.72;123754;1099;104277;-79
2024/03/12 01:11:03;;;;;;;29.23;13.23;;;;;;;6.24;78.91;100782.80;124027;1099;104258;-80
2024/03/12 01:13:34;;;;;;;26.93;12.70;;;;;;;6.24;78.76;100790.63;123808;1099;104382;-78
2024/03/12 01:16:06;;;;;;;31.17;12.93;;;;;;;6.25;78.92;100788.94;124123;1099;104325;-80
2024/03/12 01:18:38;;;;;;;28.37;13.50;;;;;;;6.25;78.75;100781.12;124012;1099;104352;-80
2024/03/12 01:21:09;;;;;;;28.43;12.90;;;;;;;6.24;79.02;100785.41;124182;1099;104252;-80
2024/03/12 01:23:41;;;;;;;27.93;13.33;;;;;;;6.23;78.91;100788.84;124084;1099;104277;-79
2024/03/12 01:26:12;;;;;;;28.50;13.27;;;;;;;6.23;79.02;100785.32;124014;1099;104280;-80
2024/03/12 01:28:44;;;;;;;27.80;13.43;;;;;;;6.25;78.93;100783.72;124074;1099;104443;-80
2024/03/12 01:31:15;;;;;;;30.60;13.20;;;;;;;6.26;78.78;100773.39;124064;1099;104274;-81
2024/03/12 01:33:46;;;;;;;27.53;13.60;;;;;;;6.27;79.34;100771.67;123920;1099;104223;-80
2024/03/12 01:36:34;;;;;;;34.00;14.30;;;;;;;6.27;79.57;100763.85;124106;1099;104403;-80
2024/03/12 01:39:08;;;;;;;31.87;13.23;;;;;;;6.25;79.53;100752.45;124124;1099;104403;-80
2024/03/12 01:41:41;;;;;;;29.27;13.97;;;;;;;6.24;79.23;100748.04;124119;1098;104402;-79
2024/03/12 01:44:13;;;;;;;31.97;14.03;;;;;;;6.24;80.06;100761.07;124278;1099;104252;-79
2024/03/12 01:46:45;;;;;;;32.17;14.07;;;;;;;6.23;79.46;100754.05;124159;1099;104280;-80
2024/03/12 01:49:17;;;;;;;30.30;12.93;;;;;;;6.23;80.54;100764.47;124060;1098;104357;-79
2024/03/12 01:51:49;;;;;;;33.40;14.90;;;;;;;6.22;80.00;100760.98;124102;1099;104399;-80
2024/03/12 01:54:20;;;;;;;34.40;14.43;;;;;;;6.19;80.14;100755.59;123625;1099;104277;-80
2024/03/12 01:56:51;;;;;;;30.83;14.27;;;;;;;6.19;79.77;100746.89;124228;1099;104329;-80
2024/03/12 01:59:23;;;;;;;36.80;14.33;;;;;;;6.15;80.26;100740.58;124100;1099;104226;-79
2024/03/12 02:02:00;;;;;;;30.05;13.90;;;;;;;6.15;80.39;100742.30;124081;1099;105604;-80
2024/03/12 02:04:32;;;;;;;33.43;14.47;;;;;;;6.17;80.27;100748.48;124159;1099;104265;-79
2024/03/12 02:07:03;;;;;;;28.07;13.13;;;;;;;6.19;80.24;100741.67;123921;1099;104351;-79
2024/03/12 02:09:35;;;;;;;34.63;15.00;;;;;;;6.19;80.84;100741.67;124039;1099;104351;-80
2024/03/12 02:12:07;;;;;;;32.60;14.37;;;;;;;6.19;80.00;100734.75;124050;1099;104332;-80
2024/03/12 02:14:38;;;;;;;30.70;14.45;;;;;;;6.20;80.41;100736.55;124110;1099;104262;-80
2024/03/12 02:17:11;;;;;;;32.60;15.33;;;;;;;6.23;80.87;100725.38;123787;1099;104241;-79
2024/03/12 02:19:42;;;;;;;33.47;15.87;;;;;;;6.20;81.03;100739.16;124030;1099;104344;-80
2024/03/12 02:22:13;;;;;;;34.67;16.00;;;;;;;6.17;81.46;100731.17;124256;1099;104226;-80
2024/03/12 02:24:46;;;;;;;30.83;14.63;;;;;;;6.16;81.05;100731.97;124074;1098;104283;-80
2024/03/12 02:27:18;;;;;;;32.03;15.30;;;;;;;6.15;80.90;100739.70;124053;1098;104325;-78
2024/03/12 02:29:49;;;;;;;29.47;14.87;;;;;;;6.14;81.14;100741.41;124127;1099;104405;-80
2024/03/12 02:32:21;;;;;;;31.40;14.73;;;;;;;6.14;81.35;100745.70;124229;1099;104220;-80
2024/03/12 02:34:54;;;;;;;33.35;15.35;;;;;;;6.13;81.63;100743.93;124129;1099;104364;-79
2024/03/12 02:37:25;;;;;;;30.40;13.93;;;;;;;6.13;81.74;100738.72;124102;1098;104357;-80
2024/03/12 02:39:56;;;;;;;31.30;15.00;;;;;;;6.11;81.27;100742.13;124037;1099;104254;-81
2024/03/12 02:42:28;;;;;;;33.23;14.77;;;;;;;6.10;81.40;100744.64;124107;1099;104290;-81
2024/03/12 02:44:59;;;;;;;32.60;14.97;;;;;;;6.09;81.49;100748.97;124263;1099;107122;-80
2024/03/12 02:47:30;;;;;;;30.20;14.40;;;;;;;6.11;81.84;100744.73;124517;1099;104303;-80
2024/03/12 02:50:02;;;;;;;31.23;14.60;;;;;;;6.10;81.76;100735.11;124830;1099;104280;-80
2024/03/12 02:52:33;;;;;;;31.87;14.63;;;;;;;6.10;81.54;100729.01;124769;1099;104268;-80
2024/03/12 02:55:05;;;;;;;32.83;15.37;;;;;;;6.09;82.18;100716.78;124707;1099;118967;-80
2024/03/12 02:57:36;;;;;;;30.20;13.65;;;;;;;6.06;82.75;100722.73;124414;1098;104347;-79
2024/03/12 03:00:11;;;;;;;29.73;13.20;;;;;;;6.05;82.99;100710.51;124153;1099;104270;-80
2024/03/12 03:02:43;;;;;;;29.20;14.60;;;;;;;6.02;82.60;100718.14;124807;1099;104268;-80
2024/03/12 03:05:15;;;;;;;28.60;13.50;;;;;;;6.03;82.73;100734.66;124446;1099;104293;-79
2024/03/12 03:07:48;;;;;;;32.33;15.13;;;;;;;6.03;81.97;100722.56;124060;1099;104328;-80
2024/03/12 03:10:20;;;;;;;29.70;14.23;;;;;;;6.01;81.93;100718.95;124100;1099;104245;-79
2024/03/12 03:12:51;;;;;;;29.60;13.60;;;;;;;6.02;82.59;100715.55;124146;1099;104322;-80
2024/03/12 03:15:23;;;;;;;30.07;13.87;;;;;;;6.03;81.91;100722.56;123886;1099;104274;-81
2024/03/12 03:17:55;;;;;;;31.77;13.97;;;;;;;6.01;82.99;100711.13;123766;1099;104433;-79
2024/03/12 03:20:26;;;;;;;32.67;13.37;;;;;;;6.00;82.04;100708.44;124084;1099;104332;-80
2024/03/12 03:22:57;;;;;;;28.90;13.50;;;;;;;5.98;82.46;100713.56;124023;1099;104367;-79
2024/03/12 03:25:29;;;;;;;31.03;13.73;;;;;;;5.97;82.35;100714.39;124046;1099;104347;-79
2024/03/12 03:28:00;;;;;;;26.37;11.40;;;;;;;5.99;82.28;100730.11;124049;1099;104347;-80
2024/03/12 03:30:31;;;;;;;27.15;12.10;;;;;;;5.99;82.42;100736.20;124018;1098;104198;-79
2024/03/12 03:33:06;;;;;;;28.00;13.07;;;;;;;5.99;81.71;100738.81;123895;1099;104220;-81
2024/03/12 03:35:38;;;;;;;31.90;13.67;;;;;;;6.00;81.45;100738.02;124014;1099;104246;-80
2024/03/12 03:38:09;;;;;;;28.27;12.50;;;;;;;6.01;81.58;100742.39;124016;1099;104278;-79
2024/03/12 03:40:41;;;;;;;29.17;12.87;;;;;;;6.03;81.68;100732.98;124177;1099;104303;-80
2024/03/12 03:43:12;;;;;;;29.70;13.30;;;;;;;6.07;81.54;100734.05;124040;1099;104268;-80
2024/03/12 03:45:43;;;;;;;29.03;12.83;;;;;;;6.08;81.81;100735.84;124238;1099;105467;-79
2024/03/12 03:48:14;;;;;;;32.93;13.93;;;;;;;6.05;81.58;100731.34;123948;1099;104349;-80
2024/03/12 03:50:46;;;;;;;29.07;13.23;;;;;;;6.05;81.81;100731.34;124074;1099;104274;-79
2024/03/12 03:53:17;;;;;;;28.47;13.33;;;;;;;6.01;81.54;100724.16;123971;1099;104245;-80
2024/03/12 03:55:49;;;;;;;32.57;13.60;;;;;;;5.99;81.53;100723.18;124125;1099;104302;-80
2024/03/12 03:58:20;;;;;;;30.60;13.85;;;;;;;5.99;81.73;100723.18;124060;1099;104277;-79
2024/03/12 04:00:51;;;;;;;27.10;12.93;;;;;;;5.98;81.67;100717.88;123939;1098;104323;-81
2024/03/12 04:03:25;;;;;;;29.00;13.73;;;;;;;5.96;81.38;100715.16;124216;1099;104293;-78
2024/03/12 04:05:56;;;;;;;28.38;14.03;;;;;;;5.93;81.49;100710.66;124042;1099;104271;-79
2024/03/12 04:08:28;;;;;;;32.20;14.17;;;;;;;5.92;82.04;100695.86;124025;1099;104357;-80
2024/03/12 04:10:59;;;;;;;32.20;14.47;;;;;;;5.89;81.46;100708.70;124037;1099;104370;-80
2024/03/12 04:13:32;;;;;;;29.33;13.43;;;;;;;5.88;81.82;100701.69;123928;1099;104271;-81
2024/03/12 04:16:03;;;;;;;34.60;14.93;;;;;;;5.90;81.59;100694.84;124019;1098;104223;-79
2024/03/12 04:18:34;;;;;;;32.00;14.85;;;;;;;5.89;81.72;100693.08;123987;1099;104296;-80
2024/03/12 04:21:06;;;;;;;32.23;15.33;;;;;;;5.90;81.74;100688.75;124094;1099;104379;-80
2024/03/12 04:23:37;;;;;;;28.93;14.60;;;;;;;5.91;82.06;100677.53;123851;1099;104294;-80
2024/03/12 04:26:08;;;;;;;33.23;14.67;;;;;;;5.88;82.26;100679.97;124145;1099;104267;-80
2024/03/12 04:28:40;;;;;;;31.90;14.90;;;;;;;5.86;81.96;100671.14;124026;1099;104293;-80
2024/03/12 04:31:12;;;;;;;35.33;15.30;;;;;;;5.83;83.11;100670.97;123980;1098;104310;-78
2024/03/12 04:33:43;;;;;;;31.07;14.63;;;;;;;5.82;82.74;100658.78;123973;1099;104315;-79
2024/03/12 04:36:15;;;;;;;36.17;15.87;;;;;;;5.83;82.26;100673.58;123991;1099;104272;-80
2024/03/12 04:38:46;;;;;;;35.20;16.03;;;;;;;5.83;82.03;100676.17;123993;1099;104377;-80
2024/03/12 04:41:20;;;;;;;32.23;15.87;;;;;;;5.86;82.06;100665.94;124116;1099;104350;-81
2024/03/12 04:43:51;;;;;;;30.57;14.40;;;;;;;5.87;83.41;100671.23;123999;1099;104316;-80
2024/03/12 04:46:22;;;;;;;37.63;15.37;;;;;;;5.85;83.60;100669.38;123999;1099;104361;-80
2024/03/12 04:48:55;;;;;;;31.90;15.97;;;;;;;5.86;82.54;100668.54;123891;1099;104366;-81
2024/03/12 04:51:26;;;;;;;30.97;15.07;;;;;;;5.85;83.08;100665.05;124108;1098;104408;-78
2024/03/12 04:53:58;;;;;;;32.93;16.40;;;;;;;5.88;82.55;100670.44;124041;1099;104322;-80
2024/03/12 04:56:29;;;;;;;36.00;15.97;;;;;;;5.91;83.29;100672.33;124169;1099;104766;-81
2024/03/12 04:59:00;;;;;;;33.10;16.10;;;;;;;5.91;82.67;100665.41;124043;1099;104171;-79
2024/03/12 05:01:32;;;;;;;31.90;16.03;;;;;;;5.92;82.57;100659.39;124316;1099;104252;-81
2024/03/12 05:04:03;;;;;;;33.00;15.23;;;;;;;5.94;83.31;100656.88;124061;1099;104376;-80
2024/03/12 05:06:34;;;;;;;36.40;16.83;;;;;;;5.94;82.99;100654.27;124247;1099;104344;-80
2024/03/12 05:09:06;;;;;;;36.17;16.33;;;;;;;5.96;83.21;100660.45;124159;1099;104267;-79
2024/03/12 05:11:37;;;;;;;41.55;18.30;;;;;;;5.95;82.85;100656.05;124114;1099;104182;-81
2024/03/12 05:14:08;;;;;;;35.70;17.27;;;;;;;5.96;83.36;100651.75;124071;1099;104361;-80
2024/03/12 05:16:39;;;;;;;35.47;16.37;;;;;;;5.97;83.36;100653.56;124304;1099;105705;-81
2024/03/12 05:19:11;;;;;;;35.00;16.33;;;;;;;5.98;83.45;100651.04;124606;1098;104310;-80
2024/03/12 05:21:43;;;;;;;37.00;17.17;;;;;;;5.98;83.21;100656.25;124352;1099;104376;-81
2024/03/12 05:24:17;;;;;;;34.43;16.87;;;;;;;6.01;83.48;100650.33;124575;1099;104245;-81
2024/03/12 05:26:49;;;;;;;36.07;16.97;;;;;;;6.03;83.22;100649.62;124087;1099;104316;-80
2024/03/12 05:29:26;;;;;;;37.00;16.70;;;;;;;6.06;83.29;100648.87;124290;1098;101924;-81
2024/03/12 05:31:57;;;;;;;40.20;17.50;;;;;;;6.07;83.38;100661.98;124416;1099;104245;-79
2024/03/12 05:34:37;;;;;;;36.27;16.07;;;;;;;6.09;83.27;100656.86;124271;1099;104687;-80
2024/03/12 05:37:18;;;;;;;34.10;16.07;;;;;;;6.09;83.20;100644.75;124274;1099;104354;-78
2024/03/12 05:40:00;;;;;;;34.03;15.83;;;;;;;6.10;83.40;100643.03;124270;1099;104229;-80
2024/03/12 05:48:10;;;;;;;32.20;15.37;;;;;;;6.16;83.83;100629.46;124516;1099;104287;-79
2024/03/12 05:50:43;;;;;;;35.00;16.40;;;;;;;6.18;83.46;100625.22;124608;1099;104245;-78
2024/03/12 05:53:15;;;;;;;36.27;15.80;;;;;;;6.18;83.42;100628.71;124045;1099;104444;-80
2024/03/12 05:55:46;;;;;;;32.70;14.40;;;;;;;6.21;84.02;100636.70;124622;1099;104363;-77
2024/03/12 05:58:17;;;;;;;33.95;16.20;;;;;;;6.21;83.65;100636.70;124690;1099;104310;-79
2024/03/12 06:00:49;;;;;;;36.13;15.63;;;;;;;6.20;84.16;100631.41;124642;1099;104278;-79
2024/03/12 06:03:20;;;;;;;32.07;14.60;;;;;;;6.21;83.79;100633.21;124532;1098;104354;-79
2024/03/12 06:05:52;;;;;;;39.23;16.70;;;;;;;6.21;83.56;100631.48;124890;1099;104297;-79
2024/03/12 06:08:24;;;;;;;37.30;15.65;;;;;;;6.26;83.65;100634.34;124703;1099;104251;-79
2024/03/12 06:10:56;;;;;;;31.57;15.73;;;;;;;6.28;83.74;100627.53;124769;1099;104248;-79
2024/03/12 06:13:27;;;;;;;31.93;15.33;;;;;;;6.29;83.84;100613.67;125064;1098;104220;-79
2024/03/12 06:15:59;;;;;;;31.93;15.13;;;;;;;6.30;84.22;100592.02;124832;1099;104291;-78
2024/03/12 06:18:30;;;;;;;30.23;14.87;;;;;;;6.31;83.98;100591.22;124757;1098;104341;-78
2024/03/12 06:21:01;;;;;;;32.80;15.90;;;;;;;6.33;83.64;100588.66;124665;1099;104300;-78
2024/03/12 06:23:32;;;;;;;36.23;16.17;;;;;;;6.33;83.84;100605.22;124748;1099;104194;-78
2024/03/12 06:26:04;;;;;;;37.10;16.47;;;;;;;6.31;83.85;100617.28;125036;1099;104328;-78
2024/03/12 06:28:35;;;;;;;34.73;17.20;;;;;;;6.31;84.13;100627.70;124997;1099;105658;-77
2024/03/12 06:31:07;;;;;;;31.20;15.63;;;;;;;6.31;84.43;100617.28;125063;1099;104325;-78
2024/03/12 06:33:42;;;;;;;33.77;17.10;;;;;;;6.33;83.70;100617.33;124937;1099;104194;-80
2024/03/12 06:36:17;;;;;;;40.80;16.83;;;;;;;6.37;84.00;100603.66;124878;1099;104245;-80
2024/03/12 06:38:52;;;;;;;32.63;16.63;;;;;;;6.38;83.41;100590.72;124911;1099;104262;-79
2024/03/12 06:41:24;;;;;;;40.97;17.90;;;;;;;6.39;83.79;100574.27;124887;1099;104200;-77
2024/03/12 06:43:57;;;;;;;35.33;17.50;;;;;;;6.39;84.00;100581.17;124839;1099;104265;-79
2024/03/12 06:46:29;;;;;;;34.47;16.30;;;;;;;6.38;84.56;100577.68;124307;1099;104220;-78
2024/03/12 06:49:01;;;;;;;35.30;17.03;;;;;;;6.40;84.38;100568.22;124913;1099;104242;-78
2024/03/12 06:51:34;;;;;;;36.33;17.17;;;;;;;6.41;84.38;100559.60;124963;1099;104242;-79
2024/03/12 06:54:05;;;;;;;33.67;17.10;;;;;;;6.41;83.77;100559.60;124958;1099;104322;-79
2024/03/12 06:56:42;;;;;;;36.20;18.00;;;;;;;6.44;84.05;100559.77;124922;1099;102770;-79
2024/03/12 06:59:15;;;;;;;36.20;18.40;;;;;;;6.47;84.17;100539.08;125317;1099;104255;-79
2024/03/12 07:01:51;;;;;;;33.97;17.43;;;;;;;6.53;83.92;100541.12;125207;1099;103884;-79
2024/03/12 07:04:24;;;;;;;41.20;19.10;;;;;;;6.56;84.07;100559.53;125317;1099;102736;-79
2024/03/12 07:06:56;;;;;;;40.30;18.90;;;;;;;6.56;84.07;100543.89;125071;1099;104188;-79
2024/03/12 07:09:27;;;;;;;36.37;18.83;;;;;;;6.58;83.77;100549.19;125410;1099;104322;-78
2024/03/12 07:12:00;;;;;;;39.13;18.50;;;;;;;6.62;84.17;100517.22;125512;1099;103340;-78
2024/03/12 07:14:39;;;;;;;34.17;16.87;;;;;;;6.67;83.87;100510.55;125120;1099;102695;-78
2024/03/12 07:17:10;;;;;;;33.77;17.23;;;;;;;6.72;83.94;100522.11;125181;1099;104175;-78
2024/03/12 07:19:42;;;;;;;32.33;16.73;;;;;;;6.77;83.70;100557.12;124971;1099;104224;-78
2024/03/12 07:22:17;;;;;;;34.73;16.33;;;;;;;6.80;83.34;100567.72;125355;1099;102670;-79
2024/03/12 07:25:03;;;;;;;31.93;16.93;;;;;;;6.80;83.81;100585.98;125143;1099;102953;-78
2024/03/12 07:27:38;;;;;;;30.60;15.80;;;;;;;6.82;83.00;100635.62;125238;1099;102600;-78
2024/03/12 07:30:12;;;;;;;31.10;15.33;;;;;;;6.82;83.06;100657.41;125057;1099;104175;-79
2024/03/12 07:32:42;;;;;;;;;;;;;;;6.91;83.32;100609.13;126915;1099;101863;-79
2024/03/12 07:35:17;;;;;;;35.70;16.67;;;;;;;7.02;83.10;100634.05;124992;1099;103100;-79
2024/03/12 07:37:48;;;;;;;35.23;16.80;;;;;;;7.07;83.46;100635.18;124980;1099;104314;-79
2024/03/12 07:40:19;;;;;;;34.77;16.13;;;;;;;7.12;83.53;100630.20;124982;1099;102904;-78
2024/03/12 07:42:52;;;;;;;33.20;16.33;;;;;;;7.16;83.72;100632.16;124716;1099;104121;-79
2024/03/12 07:45:24;;;;;;;36.20;16.37;;;;;;;7.14;83.49;100628.59;125209;1099;102874;-79
2024/03/12 07:47:56;;;;;;;33.13;17.27;;;;;;;7.13;84.38;100630.28;125167;1099;104311;-79
2024/03/12 07:50:31;;;;;;;33.55;15.75;;;;;;;7.14;83.99;100633.81;124912;1098;104399;-79
2024/03/12 07:53:06;;;;;;;29.53;14.60;;;;;;;7.13;83.72;100627.67;125041;1099;104169;-78
2024/03/12 07:55:43;;;;;;;37.05;16.75;;;;;;;7.10;83.40;100631.84;125276;1099;104181;-79
2024/03/12 07:58:17;;;;;;;35.93;16.40;;;;;;;7.08;83.52;100623.94;124763;1099;104348;-79
2024/03/12 08:00:48;;;;;;;34.40;17.20;;;;;;;7.08;83.66;100623.05;125139;1099;104835;-79
2024/03/12 08:03:19;;;;;;;37.47;17.10;;;;;;;7.10;83.71;100606.64;125023;1099;102748;-79
2024/03/12 08:05:51;;;;;;;32.37;17.00;;;;;;;7.13;84.10;100622.45;125116;1099;104268;-79
2024/03/12 08:08:22;;;;;;;33.10;16.27;;;;;;;7.13;84.19;100614.62;125152;1098;104251;-79
2024/03/12 08:10:54;;;;;;;31.70;16.53;;;;;;;7.13;84.60;100614.62;125236;1099;102787;-79
2024/03/12 08:13:25;;;;;;;33.63;15.27;;;;;;;7.15;84.73;100606.87;125277;1099;104174;-78
2024/03/12 08:15:58;;;;;;;34.13;16.97;;;;;;;7.11;84.92;100608.44;125214;1099;102995;-79
2024/03/12 08:18:29;;;;;;;35.43;16.20;;;;;;;7.10;85.19;100606.64;125216;1099;104197;-79
2024/03/12 08:21:02;;;;;;;33.43;16.10;;;;;;;7.09;85.07;100603.95;125127;1099;104207;-80
2024/03/12 08:23:34;;;;;;;31.80;15.43;;;;;;;7.04;85.69;100606.32;125431;1098;104242;-77
2024/03/12 08:26:07;;;;;;;34.17;16.63;;;;;;;7.01;85.68;100600.95;125257;1099;104226;-78
2024/03/12 08:28:40;;;;;;;33.83;16.80;;;;;;;6.96;85.43;100595.48;125236;1098;104415;-78
2024/03/12 08:31:12;;;;;;;34.60;17.30;;;;;;;6.94;85.70;100591.03;125181;1099;104272;-78
2024/03/12 08:33:44;;;;;;;30.57;15.83;;;;;;;6.93;86.09;100574.45;125128;1099;104269;-78
2024/03/12 08:36:16;;;;;;;38.47;16.80;;;;;;;6.93;85.54;100576.19;125339;1099;102776;-79
2024/03/12 08:38:47;;;;;;;34.93;17.10;;;;;;;6.91;86.25;100575.22;124715;1099;104208;-78
2024/03/12 08:41:19;;;;;;;31.13;16.43;;;;;;;6.91;86.46;100572.61;125016;1099;104178;-78
2024/03/12 08:43:52;;;;;;;32.77;17.93;;;;;;;6.94;86.22;100573.66;125147;1099;104182;-78
2024/03/12 08:46:24;;;;;;;36.13;17.93;;;;;;;7.00;85.79;100573.08;125228;1099;104073;-78
2024/03/12 08:48:56;;;;;;;32.83;16.67;;;;;;;7.06;86.37;100575.09;125069;1098;104181;-78
2024/03/12 08:51:33;;;;;;;36.73;17.80;;;;;;;7.07;86.44;100569.95;125071;1099;104252;-78
2024/03/12 08:54:05;;;;;;;35.93;18.27;;;;;;;7.08;86.71;100576.97;125049;1099;104115;-78
2024/03/12 08:56:37;;;;;;;31.00;17.33;;;;;;;7.06;86.81;100562.96;125162;1099;103041;-78
2024/03/12 08:59:08;;;;;;;39.17;18.67;;;;;;;7.01;87.22;100572.25;125117;1099;104226;-79
2024/03/12 09:01:40;;;;;;;34.13;17.20;;;;;;;7.00;88.98;100570.48;125663;1099;104245;-78
2024/03/12 09:04:12;;;;;;;38.73;18.90;;;;;;;7.06;87.01;100569.88;125125;1099;103190;-79
2024/03/12 09:06:44;;;;;;;34.55;17.05;;;;;;;7.16;87.56;100573.03;124718;1099;103536;-79
2024/03/12 09:09:18;;;;;;;34.57;17.40;;;;;;;7.28;87.40;100571.88;124955;1099;104172;-79
2024/03/12 09:11:49;;;;;;;32.03;16.23;;;;;;;7.38;87.96;100577.59;125080;1098;104166;-79
2024/03/12 09:14:21;;;;;;;35.10;17.33;;;;;;;7.49;86.91;100575.52;125277;1099;104185;-78
2024/03/12 09:16:53;;;;;;;35.17;17.27;;;;;;;7.53;87.12;100581.81;125210;1098;104211;-79
2024/03/12 09:19:28;;;;;;;34.20;17.53;;;;;;;7.58;86.55;100588.15;125196;1099;103340;-79
2024/03/12 09:22:03;;;;;;;34.33;18.13;;;;;;;7.63;87.18;100578.81;125137;1099;103379;-78
2024/03/12 09:24:35;;;;;;;30.37;14.87;;;;;;;7.64;87.36;100569.28;125313;1099;103230;-79
2024/03/12 09:27:07;;;;;;;35.90;17.37;;;;;;;7.63;86.97;100577.92;125065;1098;104200;-79
2024/03/12 09:29:40;;;;;;;33.27;18.17;;;;;;;7.57;87.28;100578.51;125062;1099;104270;-78
2024/03/12 09:32:11;;;;;;;32.93;16.87;;;;;;;7.52;87.36;100591.34;124950;1099;104374;-78
2024/03/12 09:34:42;;;;;;;32.60;16.97;;;;;;;7.46;86.79;100591.03;124894;1099;102478;-78
2024/03/12 09:37:15;;;;;;;32.03;16.30;;;;;;;7.48;87.57;100586.80;124957;1099;102285;-78
2024/03/12 09:39:46;;;;;;;30.30;15.37;;;;;;;7.48;87.56;100594.64;125042;1099;104258;-78
2024/03/12 09:42:19;;;;;;;34.90;16.87;;;;;;;7.42;87.83;100583.89;124887;1099;104159;-79
2024/03/12 09:44:51;;;;;;;32.30;16.03;;;;;;;7.33;87.04;100576.48;124775;1099;104310;-78
2024/03/12 09:47:24;;;;;;;34.53;16.80;;;;;;;7.31;87.23;100580.74;124875;1099;104249;-78
2024/03/12 09:49:56;;;;;;;35.87;17.10;;;;;;;7.29;87.40;100582.39;124802;1099;104188;-79
2024/03/12 09:52:29;;;;;;;32.33;16.60;;;;;;;7.33;87.19;100576.48;125279;1099;103342;-79
2024/03/12 09:55:00;;;;;;;32.57;16.43;;;;;;;7.36;87.18;100579.25;124936;1099;104303;-77
2024/03/12 09:57:33;;;;;;;31.07;16.70;;;;;;;7.34;87.40;100570.45;125013;1099;104268;-80
2024/03/12 10:00:11;;;;;;;33.93;17.10;;;;;;;7.28;87.37;100579.70;124590;1099;104187;-78
2024/03/12 10:02:44;;;;;;;31.17;15.87;;;;;;;7.20;87.94;100571.49;125601;1098;104238;-78
2024/03/12 10:05:16;;;;;;;33.07;15.80;;;;;;;7.13;87.69;100569.37;125081;1099;104235;-78
2024/03/12 10:08:08;;;;;;;30.77;16.10;;;;;;;7.10;87.80;100569.22;124977;1099;104171;-77
2024/03/12 10:10:42;;;;;;;35.53;17.37;;;;;;;7.10;87.47;100561.39;125026;1098;104380;-78
2024/03/12 10:13:21;;;;;;;33.90;17.47;;;;;;;7.12;87.55;100563.27;124914;1098;104182;-78
2024/03/12 10:15:59;;;;;;;36.17;17.13;;;;;;;7.12;87.79;100551.92;125003;1099;104153;-78
2024/03/12 10:18:33;;;;;;;33.70;16.33;;;;;;;7.06;88.35;100547.30;125175;1098;104281;-78
2024/03/12 10:21:06;;;;;;;30.48;15.88;;;;;;;7.06;87.68;100544.70;126694;1099;102542;-78
2024/03/12 10:23:40;;;;;;;34.73;15.80;;;;;;;7.04;87.46;100538.48;126711;1099;102620;-78
2024/03/12 10:26:16;;;;;;;33.48;17.32;;;;;;;7.01;88.04;100543.55;126024;1098;102946;-78
2024/03/12 10:28:50;;;;;;;35.43;17.70;;;;;;;6.95;88.11;100541.54;126645;1099;102641;-78
2024/03/12 10:31:30;;;;;;;33.43;17.50;;;;;;;6.92;88.27;100533.56;126736;1098;102187;-78
2024/03/12 10:34:10;;;;;;;29.50;16.17;;;;;;;6.93;87.74;100534.45;125793;1099;102963;-78
2024/03/12 10:36:43;;;;;;;32.77;18.20;;;;;;;6.95;87.90;100528.50;125790;1099;102637;-79
2024/03/12 10:39:27;;;;;;;35.67;17.93;;;;;;;6.93;88.57;100522.28;126293;1099;102217;-79
2024/03/12 10:42:03;;;;;;;39.70;18.93;;;;;;;6.91;89.33;100523.05;126987;1099;102666;-78
2024/03/12 10:44:40;;;;;;;35.40;19.07;;;;;;;6.89;89.04;100517.75;126653;1098;102342;-78
2024/03/12 10:47:12;;;;;;;36.30;18.55;;;;;;;6.87;89.39;100513.27;125364;1099;104239;-78
2024/03/12 10:49:48;;;;;;;35.43;18.93;;;;;;;6.89;88.49;100509.92;125281;1099;103924;-78
2024/03/12 10:52:24;;;;;;;39.00;18.00;;;;;;;6.88;88.98;100515.06;125179;1099;104205;-78
2024/03/12 10:54:55;;;;;;;35.87;17.77;;;;;;;6.87;89.90;100513.27;125254;1099;109472;-78
2024/03/12 10:57:27;;;;;;;34.35;15.95;;;;;;;6.84;89.95;100490.55;125175;1099;102080;-78
2024/03/12 11:00:08;;;;;;;32.43;17.30;;;;;;;6.85;89.58;100505.36;125059;1098;103203;-78
2024/03/12 11:02:40;;;;;;;31.50;16.53;;;;;;;6.86;89.52;100495.81;125457;1099;102938;-78
2024/03/12 11:05:12;;;;;;;32.93;16.10;;;;;;;6.87;91.15;100487.18;125717;1099;102506;-79
2024/03/12 11:07:46;;;;;;;34.37;17.13;;;;;;;6.83;90.65;100480.92;125166;1099;104268;-78
2024/03/12 11:10:18;;;;;;;34.30;19.67;;;;;;;6.79;90.13;100494.61;125104;1099;104242;-78
2024/03/12 11:12:49;;;;;;;33.53;17.67;;;;;;;6.77;91.65;100484.10;124657;1099;102704;-78
2024/03/12 11:15:23;;;;;;;37.27;19.50;;;;;;;6.75;90.33;100477.05;125225;1099;104169;-78
2024/03/12 11:17:56;;;;;;;33.90;18.10;;;;;;;6.76;91.47;100479.73;125089;1099;102179;-78
2024/03/12 11:20:28;;;;;;;37.03;18.97;;;;;;;6.75;91.46;100464.00;125043;1099;104214;-78
2024/03/12 11:23:01;;;;;;;37.40;20.57;;;;;;;6.74;91.24;100470.02;125206;1099;102892;-77
2024/03/12 11:25:45;;;;;;;36.57;20.87;;;;;;;6.72;91.98;100466.45;125140;1099;104199;-77
2024/03/12 11:28:22;;;;;;;38.20;20.27;;;;;;;6.69;92.11;100471.52;125896;1098;102765;-78
2024/03/12 11:31:04;;;;;;;35.33;20.17;;;;;;;6.66;92.76;100470.52;125149;1099;102626;-79
2024/03/12 11:33:46;;;;;;;35.43;19.57;;;;;;;6.68;92.17;100469.71;125665;1099;102550;-77